Terminal Aerodrome Forecast
Issued by NWS

Home | Current Version | Previous Version | Text Only | Print | Product List | Glossary Off
Versions: 1 2 3 4 5 6 7 8 9 10 11 12

000
FTUS43 KAPX 242325
TAFTVC
TAF
KTVC 242325Z 2500/2524 00000KT P6SM SKC
     FM251400 21006KT P6SM SKC
     FM252100 04006KT P6SM SKC=

USA.gov is the U.S. government's official web portal to all federal, state and local government web resources and services.